To NAV CANADA Home Page Login to a new session Search on AWWS site Feedback and Comments Disclaimer Vers la page française équivalente Tips FAQ What's new on the site To the Forecasts and Observations / NOTAM section To "File a Flight Plan" website Publications and other links Update of the User's profile FIC Telephone Numbers My Weather Data Folder Route Weather Data Regional Weather Data Local Weather Data To the Forecasts and Observations / NOTAM section
Request Generated 12/04/2016 at 22:24:02 UTC . Weather information available at that time is displayed.

METAR/TAF

LA GRANDE-4/QC    (show WxCam)

METAR CYAH 042200Z AUTO 27006KT 9SM BKN019 OVC025 M08/M09 A3010 RMK
SLP228=
SPECI CYAH 042150Z AUTO 28006KT 9SM BKN017 OVC025 M08/M09 A3010 RMK
SLP228=
SPECI CYAH 042141Z AUTO 26006KT 6SM -SN OVC015 M08/M09 A3011 RMK
SLP229=
SPECI CYAH 042134Z AUTO 27005KT 5SM -SN OVC015 M08/M09 A3010 RMK
SLP228=
METAR CYAH 042100Z AUTO 27008KT 9SM -SN OVC017 M08/M09 A3011 RMK
SLP229=
SPECI CYAH 042019Z AUTO 25008KT 8SM -SN BKN011 OVC017 M08/M09 A3011
RMK SLP229=
SPECI CYAH 042010Z AUTO 26008KT 9SM OVC015 M08/M09 A3011 RMK SLP229=
METAR CYAH 042000Z AUTO 26008KT 9SM -SN OVC017 M08/M09 A3011 RMK
SLP229=

*** REMARK        : Forecast period has ended; this was the last TAF issued
*** REMARQUE : La période de prévision est échue; ceci était le dernier TAF qui a été émis
TAF CYAH 041739Z 0418/0422 25007KT 2SM -SN BR OVC005 TEMPO 0418/0419
6SM -SN OVC010
FM041900 25007KT P6SM OVC010 TEMPO 0419/0422 2SM -SN BR OVC007
RMK FCST BASED ON AUTO OBS. NXT FCST WILL BE ISSUED AT 051145Z=
Your time UTC time
Weather data provided by Environment Canada and NAV CANADA